sensor_id;sensor_type;location;lat;lon;timestamp;pressure;altitude;pressure_sealevel;temperature;humidity
60676;BME280;46716;38.014;-7.874;2022-11-20T00:01:45;100923.63;;;9.28;100.00
60676;BME280;46716;38.014;-7.874;2022-11-20T00:03:46;100918.38;;;9.27;100.00
60676;BME280;46716;38.014;-7.874;2022-11-20T00:05:49;100915.81;;;9.23;100.00
60676;BME280;46716;38.014;-7.874;2022-11-20T00:10:51;100928.81;;;9.31;100.00
60676;BME280;46716;38.014;-7.874;2022-11-20T00:13:08;100928.91;;;9.28;100.00
60676;BME280;46716;38.014;-7.874;2022-11-20T00:15:16;100904.56;;;9.17;100.00
60676;BME280;46716;38.014;-7.874;2022-11-20T00:18:12;100915.84;;;9.22;100.00
60676;BME280;46716;38.014;-7.874;2022-11-20T00:21:18;100921.97;;;9.24;100.00
60676;BME280;46716;38.014;-7.874;2022-11-20T00:23:24;100896.50;;;9.23;100.00
60676;BME280;46716;38.014;-7.874;2022-11-20T00:25:51;100894.84;;;9.19;100.00
60676;BME280;46716;38.014;-7.874;2022-11-20T00:27:52;100895.84;;;9.15;100.00
60676;BME280;46716;38.014;-7.874;2022-11-20T00:29:53;100891.56;;;9.10;100.00
60676;BME280;46716;38.014;-7.874;2022-11-20T00:31:54;100914.25;;;9.16;100.00
60676;BME280;46716;38.014;-7.874;2022-11-20T00:33:58;100916.84;;;9.18;100.00
60676;BME280;46716;38.014;-7.874;2022-11-20T00:36:08;100917.78;;;9.15;100.00
60676;BME280;46716;38.014;-7.874;2022-11-20T00:38:09;100916.06;;;9.13;100.00
60676;BME280;46716;38.014;-7.874;2022-11-20T00:40:11;100910.91;;;9.08;100.00
60676;BME280;46716;38.014;-7.874;2022-11-20T00:42:12;100914.34;;;9.11;100.00
60676;BME280;46716;38.014;-7.874;2022-11-20T00:44:13;100908.41;;;9.03;100.00
60676;BME280;46716;38.014;-7.874;2022-11-20T00:46:16;100926.63;;;9.11;100.00
60676;BME280;46716;38.014;-7.874;2022-11-20T00:48:21;100919.69;;;9.08;100.00
60676;BME280;46716;38.014;-7.874;2022-11-20T00:50:23;100933.72;;;9.09;100.00
60676;BME280;46716;38.014;-7.874;2022-11-20T00:52:28;100928.50;;;9.07;100.00
60676;BME280;46716;38.014;-7.874;2022-11-20T00:54:30;100926.81;;;9.05;100.00
60676;BME280;46716;38.014;-7.874;2022-11-20T00:56:40;100932.84;;;9.08;100.00
60676;BME280;46716;38.014;-7.874;2022-11-20T00:58:46;100924.25;;;9.02;100.00
60676;BME280;46716;38.014;-7.874;2022-11-20T01:00:49;100925.81;;;9.09;100.00
60676;BME280;46716;38.014;-7.874;2022-11-20T01:02:52;100904.84;;;9.04;100.00
60676;BME280;46716;38.014;-7.874;2022-11-20T01:04:54;100886.59;;;8.96;100.00
60676;BME280;46716;38.014;-7.874;2022-11-20T01:07:04;100893.59;;;8.97;100.00
60676;BME280;46716;38.014;-7.874;2022-11-20T01:09:13;100918.78;;;9.09;100.00
60676;BME280;46716;38.014;-7.874;2022-11-20T01:11:17;100910.00;;;9.10;100.00
60676;BME280;46716;38.014;-7.874;2022-11-20T01:13:21;100904.78;;;9.07;100.00
60676;BME280;46716;38.014;-7.874;2022-11-20T01:15:38;100907.28;;;9.14;100.00
60676;BME280;46716;38.014;-7.874;2022-11-20T01:17:39;100911.72;;;9.11;100.00
60676;BME280;46716;38.014;-7.874;2022-11-20T01:19:40;100911.84;;;9.05;100.00
60676;BME280;46716;38.014;-7.874;2022-11-20T01:21:42;100917.13;;;9.05;100.00
60676;BME280;46716;38.014;-7.874;2022-11-20T01:23:43;100927.78;;;8.99;100.00
60676;BME280;46716;38.014;-7.874;2022-11-20T01:25:45;100913.94;;;8.91;100.00
60676;BME280;46716;38.014;-7.874;2022-11-20T01:27:50;100894.13;;;8.72;100.00
60676;BME280;46716;38.014;-7.874;2022-11-20T01:29:57;100907.22;;;8.77;100.00
60676;BME280;46716;38.014;-7.874;2022-11-20T01:31:58;100910.06;;;8.66;100.00
60676;BME280;46716;38.014;-7.874;2022-11-20T01:34:02;100914.59;;;8.59;100.00
60676;BME280;46716;38.014;-7.874;2022-11-20T01:36:06;100909.44;;;8.53;100.00
60676;BME280;46716;38.014;-7.874;2022-11-20T01:38:08;100893.06;;;8.39;100.00
60676;BME280;46716;38.014;-7.874;2022-11-20T01:40:09;100905.16;;;8.47;100.00
60676;BME280;46716;38.014;-7.874;2022-11-20T01:42:10;100903.44;;;8.46;100.00
60676;BME280;46716;38.014;-7.874;2022-11-20T01:45:00;100904.25;;;8.48;100.00
60676;BME280;46716;38.014;-7.874;2022-11-20T01:47:04;100885.97;;;8.42;100.00
60676;BME280;46716;38.014;-7.874;2022-11-20T01:52:27;100892.72;;;8.57;100.00
60676;BME280;46716;38.014;-7.874;2022-11-20T01:54:41;100909.28;;;8.63;100.00
60676;BME280;46716;38.014;-7.874;2022-11-20T01:56:45;100911.81;;;8.67;100.00
60676;BME280;46716;38.014;-7.874;2022-11-20T01:58:51;100898.56;;;8.72;100.00
60676;BME280;46716;38.014;-7.874;2022-11-20T02:00:53;100894.09;;;8.74;100.00
60676;BME280;46716;38.014;-7.874;2022-11-20T02:02:57;100895.00;;;8.75;100.00
60676;BME280;46716;38.014;-7.874;2022-11-20T02:05:04;100890.72;;;8.69;100.00
60676;BME280;46716;38.014;-7.874;2022-11-20T02:07:10;100900.41;;;8.67;100.00
60676;BME280;46716;38.014;-7.874;2022-11-20T02:09:12;100897.88;;;8.62;100.00
60676;BME280;46716;38.014;-7.874;2022-11-20T02:11:14;100906.59;;;8.66;100.00
60676;BME280;46716;38.014;-7.874;2022-11-20T02:13:18;100917.97;;;8.66;100.00
60676;BME280;46716;38.014;-7.874;2022-11-20T02:17:38;100912.81;;;8.62;100.00
60676;BME280;46716;38.014;-7.874;2022-11-20T02:19:41;100912.91;;;8.57;100.00
60676;BME280;46716;38.014;-7.874;2022-11-20T02:24:05;100924.31;;;8.56;100.00
60676;BME280;46716;38.014;-7.874;2022-11-20T02:26:10;100926.13;;;8.54;100.00
60676;BME280;46716;38.014;-7.874;2022-11-20T02:28:14;100923.50;;;8.52;100.00
60676;BME280;46716;38.014;-7.874;2022-11-20T02:30:15;100919.19;;;8.50;100.00
60676;BME280;46716;38.014;-7.874;2022-11-20T02:32:22;100913.97;;;8.46;100.00
60676;BME280;46716;38.014;-7.874;2022-11-20T02:34:23;100906.16;;;8.42;100.00
60676;BME280;46716;38.014;-7.874;2022-11-20T02:36:27;100911.38;;;8.45;100.00
60676;BME280;46716;38.014;-7.874;2022-11-20T02:38:28;100920.09;;;8.47;100.00
60676;BME280;46716;38.014;-7.874;2022-11-20T02:40:29;100914.03;;;8.43;100.00
60676;BME280;46716;38.014;-7.874;2022-11-20T02:42:30;100908.84;;;8.40;100.00
60676;BME280;46716;38.014;-7.874;2022-11-20T02:44:31;100920.09;;;8.47;100.00
60676;BME280;46716;38.014;-7.874;2022-11-20T02:46:32;100913.09;;;8.46;100.00
60676;BME280;46716;38.014;-7.874;2022-11-20T02:48:34;100907.84;;;8.46;100.00
60676;BME280;46716;38.014;-7.874;2022-11-20T02:50:38;100907.84;;;8.46;100.00
60676;BME280;46716;38.014;-7.874;2022-11-20T02:52:40;100904.28;;;8.47;100.00
60676;BME280;46716;38.014;-7.874;2022-11-20T02:54:41;100900.09;;;8.38;100.00
60676;BME280;46716;38.014;-7.874;2022-11-20T02:57:24;100895.25;;;8.18;100.00
60676;BME280;46716;38.014;-7.874;2022-11-20T02:59:28;100897.19;;;8.06;100.00
60676;BME280;46716;38.014;-7.874;2022-11-20T03:01:28;100905.94;;;8.08;100.00
60676;BME280;46716;38.014;-7.874;2022-11-20T03:03:30;100885.13;;;7.96;100.00
60676;BME280;46716;38.014;-7.874;2022-11-20T03:05:53;100908.50;;;8.12;100.00
60676;BME280;46716;38.014;-7.874;2022-11-20T03:07:54;100896.38;;;8.04;100.00
60676;BME280;46716;38.014;-7.874;2022-11-20T03:09:55;100893.75;;;8.04;100.00
60676;BME280;46716;38.014;-7.874;2022-11-20T03:12:00;100909.50;;;8.06;100.00
60676;BME280;46716;38.014;-7.874;2022-11-20T03:14:04;100915.59;;;8.06;100.00
60676;BME280;46716;38.014;-7.874;2022-11-20T03:16:11;100899.13;;;7.98;100.00
60676;BME280;46716;38.014;-7.874;2022-11-20T03:18:16;100907.88;;;7.99;100.00
60676;BME280;46716;38.014;-7.874;2022-11-20T03:20:24;100905.34;;;7.94;100.00
60676;BME280;46716;38.014;-7.874;2022-11-20T03:22:28;100916.81;;;7.90;100.00
60676;BME280;46716;38.014;-7.874;2022-11-20T03:24:33;100908.13;;;7.84;100.00
60676;BME280;46716;38.014;-7.874;2022-11-20T03:26:39;100905.56;;;7.80;100.00
60676;BME280;46716;38.014;-7.874;2022-11-20T03:28:50;100890.78;;;7.74;100.00
60676;BME280;46716;38.014;-7.874;2022-11-20T03:30:51;100891.63;;;7.78;100.00
60676;BME280;46716;38.014;-7.874;2022-11-20T03:32:54;100907.34;;;7.81;100.00
60676;BME280;46716;38.014;-7.874;2022-11-20T03:34:55;100907.41;;;7.76;100.00
60676;BME280;46716;38.014;-7.874;2022-11-20T03:36:56;100890.03;;;7.69;100.00
60676;BME280;46716;38.014;-7.874;2022-11-20T03:38:57;100892.69;;;7.67;100.00
60676;BME280;46716;38.014;-7.874;2022-11-20T03:41:13;100888.31;;;7.65;100.00
60676;BME280;46716;38.014;-7.874;2022-11-20T03:43:22;100871.09;;;7.48;100.00
60676;BME280;46716;38.014;-7.874;2022-11-20T03:46:12;100896.25;;;7.62;100.00
60676;BME280;46716;38.014;-7.874;2022-11-20T03:48:21;100881.56;;;7.50;100.00
60676;BME280;46716;38.014;-7.874;2022-11-20T03:50:31;100877.19;;;7.50;100.00
60676;BME280;46716;38.014;-7.874;2022-11-20T03:52:41;100894.59;;;7.56;100.00
60676;BME280;46716;38.014;-7.874;2022-11-20T03:54:56;100886.75;;;7.54;100.00
60676;BME280;46716;38.014;-7.874;2022-11-20T03:57:23;100902.47;;;7.57;100.00
60676;BME280;46716;38.014;-7.874;2022-11-20T03:59:44;100893.84;;;7.49;100.00
60676;BME280;46716;38.014;-7.874;2022-11-20T04:02:06;100893.84;;;7.49;100.00
60676;BME280;46716;38.014;-7.874;2022-11-20T04:04:10;100899.03;;;7.54;100.00
60676;BME280;46716;38.014;-7.874;2022-11-20T04:09:26;100910.84;;;7.78;100.00
60676;BME280;46716;38.014;-7.874;2022-11-20T04:11:53;100914.19;;;7.90;100.00
60676;BME280;46716;38.014;-7.874;2022-11-20T04:14:13;100906.97;;;8.00;100.00
60676;BME280;46716;38.014;-7.874;2022-11-20T04:16:19;100906.03;;;8.04;100.00
60676;BME280;46716;38.014;-7.874;2022-11-20T04:18:46;100897.28;;;8.03;100.00
60676;BME280;46716;38.014;-7.874;2022-11-20T04:21:06;100897.16;;;8.08;100.00
60676;BME280;46716;38.014;-7.874;2022-11-20T04:23:19;100889.56;;;7.94;100.00
60676;BME280;46716;38.014;-7.874;2022-11-20T04:25:28;100876.59;;;7.83;100.00
60676;BME280;46716;38.014;-7.874;2022-11-20T04:27:30;100900.19;;;7.88;100.00
60676;BME280;46716;38.014;-7.874;2022-11-20T04:29:31;100888.97;;;7.79;100.00
60676;BME280;46716;38.014;-7.874;2022-11-20T04:31:33;100898.69;;;7.74;100.00
60676;BME280;46716;38.014;-7.874;2022-11-20T04:33:37;100898.78;;;7.68;100.00
60676;BME280;46716;38.014;-7.874;2022-11-20T04:35:38;100893.59;;;7.63;100.00
60676;BME280;46716;38.014;-7.874;2022-11-20T04:37:42;100891.94;;;7.57;100.00
60676;BME280;46716;38.014;-7.874;2022-11-20T04:39:43;100895.44;;;7.59;100.00
60676;BME280;46716;38.014;-7.874;2022-11-20T04:41:44;100877.16;;;7.52;100.00
60676;BME280;46716;38.014;-7.874;2022-11-20T04:43:50;100888.31;;;7.65;100.00
60676;BME280;46716;38.014;-7.874;2022-11-20T04:45:53;100875.25;;;7.60;100.00
60676;BME280;46716;38.014;-7.874;2022-11-20T04:47:53;100875.94;;;7.71;100.00
60676;BME280;46716;38.014;-7.874;2022-11-20T04:49:56;100882.88;;;7.76;100.00
60676;BME280;46716;38.014;-7.874;2022-11-20T04:51:57;100882.78;;;7.80;100.00
60676;BME280;46716;38.014;-7.874;2022-11-20T04:54:00;100876.66;;;7.80;100.00
60676;BME280;46716;38.014;-7.874;2022-11-20T04:56:07;100887.97;;;7.85;100.00
60676;BME280;46716;38.014;-7.874;2022-11-20T04:58:08;100878.31;;;7.85;100.00
60676;BME280;46716;38.014;-7.874;2022-11-20T05:00:09;100876.56;;;7.86;100.00
60676;BME280;46716;38.014;-7.874;2022-11-20T05:02:11;100885.28;;;7.88;100.00
60676;BME280;46716;38.014;-7.874;2022-11-20T05:04:12;100892.31;;;7.88;100.00
60676;BME280;46716;38.014;-7.874;2022-11-20T05:06:17;100899.34;;;7.85;100.00
60676;BME280;46716;38.014;-7.874;2022-11-20T05:08:19;100899.38;;;7.84;100.00
60676;BME280;46716;38.014;-7.874;2022-11-20T05:10:20;100900.25;;;7.84;100.00
60676;BME280;46716;38.014;-7.874;2022-11-20T05:12:25;100883.78;;;7.75;100.00
60676;BME280;46716;38.014;-7.874;2022-11-20T05:14:26;100900.41;;;7.74;100.00
60676;BME280;46716;38.014;-7.874;2022-11-20T05:16:28;100881.53;;;7.51;100.00
60676;BME280;46716;38.014;-7.874;2022-11-20T05:18:29;100892.13;;;7.48;100.00
60676;BME280;46716;38.014;-7.874;2022-11-20T05:20:30;100886.16;;;7.37;100.00
60676;BME280;46716;38.014;-7.874;2022-11-20T05:22:33;100882.84;;;7.27;100.00
60676;BME280;46716;38.014;-7.874;2022-11-20T05:24:39;100888.19;;;7.19;100.00
60676;BME280;46716;38.014;-7.874;2022-11-20T05:26:43;100886.53;;;7.15;100.00
60676;BME280;46716;38.014;-7.874;2022-11-20T05:28:44;100890.94;;;7.11;100.00
60676;BME280;46716;38.014;-7.874;2022-11-20T05:30:45;100882.31;;;7.03;100.00
60676;BME280;46716;38.014;-7.874;2022-11-20T05:32:46;100870.97;;;7.01;100.00
60676;BME280;46716;38.014;-7.874;2022-11-20T05:34:47;100866.59;;;7.01;100.00
60676;BME280;46716;38.014;-7.874;2022-11-20T05:36:48;100883.09;;;7.09;100.00
60676;BME280;46716;38.014;-7.874;2022-11-20T05:38:48;100885.63;;;7.16;100.00
60676;BME280;46716;38.014;-7.874;2022-11-20T05:40:50;100893.38;;;7.25;100.00
60676;BME280;46716;38.014;-7.874;2022-11-20T05:42:51;100881.03;;;7.29;100.00
60676;BME280;46716;38.014;-7.874;2022-11-20T05:44:52;100891.41;;;7.37;100.00
60676;BME280;46716;38.014;-7.874;2022-11-20T05:46:53;100884.41;;;7.39;100.00
60676;BME280;46716;38.014;-7.874;2022-11-20T05:48:57;100892.19;;;7.45;100.00
60676;BME280;46716;38.014;-7.874;2022-11-20T05:50:59;100907.75;;;7.54;100.00
60676;BME280;46716;38.014;-7.874;2022-11-20T05:53:03;100892.06;;;7.51;100.00
60676;BME280;46716;38.014;-7.874;2022-11-20T05:55:05;100904.22;;;7.58;100.00
60676;BME280;46716;38.014;-7.874;2022-11-20T05:57:07;100907.63;;;7.64;100.00
60676;BME280;46716;38.014;-7.874;2022-11-20T05:59:09;100900.63;;;7.63;100.00
60676;BME280;46716;38.014;-7.874;2022-11-20T06:01:25;100905.88;;;7.63;100.00
60676;BME280;46716;38.014;-7.874;2022-11-20T06:03:26;100909.38;;;7.63;100.00
60676;BME280;46716;38.014;-7.874;2022-11-20T06:05:27;100897.22;;;7.57;100.00
60676;BME280;46716;38.014;-7.874;2022-11-20T06:07:28;100906.84;;;7.58;100.00
60676;BME280;46716;38.014;-7.874;2022-11-20T06:09:29;100891.31;;;7.43;100.00
60676;BME280;46716;38.014;-7.874;2022-11-20T06:11:30;100920.94;;;7.53;100.00
60676;BME280;46716;38.014;-7.874;2022-11-20T06:13:31;100914.03;;;7.45;100.00
60676;BME280;46716;38.014;-7.874;2022-11-20T06:15:32;100920.19;;;7.46;100.00
60676;BME280;46716;38.014;-7.874;2022-11-20T06:17:33;100914.13;;;7.39;100.00
60676;BME280;46716;38.014;-7.874;2022-11-20T06:19:37;100929.09;;;7.36;100.00
60676;BME280;46716;38.014;-7.874;2022-11-20T06:21:38;100933.41;;;7.40;100.00
60676;BME280;46716;38.014;-7.874;2022-11-20T06:23:40;100934.28;;;7.40;100.00
60676;BME280;46716;38.014;-7.874;2022-11-20T06:25:42;100944.84;;;7.37;100.00
60676;BME280;46716;38.014;-7.874;2022-11-20T06:27:43;100948.28;;;7.39;100.00
60676;BME280;46716;38.014;-7.874;2022-11-20T06:29:44;100922.03;;;7.38;100.00
60676;BME280;46716;38.014;-7.874;2022-11-20T06:31:45;100927.19;;;7.44;100.00
60676;BME280;46716;38.014;-7.874;2022-11-20T06:33:47;100934.84;;;7.59;100.00
60676;BME280;46716;38.014;-7.874;2022-11-20T06:35:48;100940.75;;;7.72;100.00
60676;BME280;46716;38.014;-7.874;2022-11-20T06:37:59;100951.88;;;7.89;100.00
60676;BME280;46716;38.014;-7.874;2022-11-20T06:40:03;100939.63;;;7.88;100.00
60676;BME280;46716;38.014;-7.874;2022-11-20T06:42:06;100942.00;;;8.02;100.00
60676;BME280;46716;38.014;-7.874;2022-11-20T06:44:26;100954.94;;;8.13;100.00
60676;BME280;46716;38.014;-7.874;2022-11-20T06:46:27;100953.13;;;8.18;100.00
60676;BME280;46716;38.014;-7.874;2022-11-20T06:48:30;100941.63;;;8.22;100.00
60676;BME280;46716;38.014;-7.874;2022-11-20T06:50:40;100949.41;;;8.28;100.00
60676;BME280;46716;38.014;-7.874;2022-11-20T06:52:48;100945.88;;;8.29;100.00
60676;BME280;46716;38.014;-7.874;2022-11-20T06:54:49;100949.31;;;8.33;100.00
60676;BME280;46716;38.014;-7.874;2022-11-20T06:56:50;100949.22;;;8.39;100.00
60676;BME280;46716;38.014;-7.874;2022-11-20T06:58:51;100930.81;;;8.38;100.00
60676;BME280;46716;38.014;-7.874;2022-11-20T07:00:52;100935.19;;;8.37;100.00
60676;BME280;46716;38.014;-7.874;2022-11-20T07:02:53;100950.06;;;8.40;100.00
60676;BME280;46716;38.014;-7.874;2022-11-20T07:04:54;100951.88;;;8.38;100.00
60676;BME280;46716;38.014;-7.874;2022-11-20T07:06:55;100962.28;;;8.42;100.00
60676;BME280;46716;38.014;-7.874;2022-11-20T07:09:02;100976.28;;;8.44;100.00
60676;BME280;46716;38.014;-7.874;2022-11-20T07:11:10;100975.41;;;8.44;100.00
60676;BME280;46716;38.014;-7.874;2022-11-20T07:13:12;100970.19;;;8.41;100.00
60676;BME280;46716;38.014;-7.874;2022-11-20T07:15:13;100971.09;;;8.40;100.00
60676;BME280;46716;38.014;-7.874;2022-11-20T07:17:21;100963.25;;;8.38;100.00
60676;BME280;46716;38.014;-7.874;2022-11-20T07:19:22;100969.25;;;8.45;100.00
60676;BME280;46716;38.014;-7.874;2022-11-20T07:21:23;100968.41;;;8.43;100.00
60676;BME280;46716;38.014;-7.874;2022-11-20T07:23:24;100970.00;;;8.52;100.00
60676;BME280;46716;38.014;-7.874;2022-11-20T07:25:26;100981.31;;;8.58;100.00
60676;BME280;46716;38.014;-7.874;2022-11-20T07:27:27;100973.31;;;8.63;100.00
60676;BME280;46716;38.014;-7.874;2022-11-20T07:29:39;100978.53;;;8.65;100.00
60676;BME280;46716;38.014;-7.874;2022-11-20T07:31:42;100974.94;;;8.70;100.00
60676;BME280;46716;38.014;-7.874;2022-11-20T07:33:44;100973.03;;;8.77;100.00
60676;BME280;46716;38.014;-7.874;2022-11-20T07:35:45;100972.06;;;8.81;100.00
60676;BME280;46716;38.014;-7.874;2022-11-20T07:37:46;100963.38;;;8.78;100.00
60676;BME280;46716;38.014;-7.874;2022-11-20T07:39:49;100957.16;;;8.80;100.00
60676;BME280;46716;38.014;-7.874;2022-11-20T07:41:49;100966.59;;;8.91;100.00
60676;BME280;46716;38.014;-7.874;2022-11-20T07:43:50;100953.47;;;8.89;100.00
60676;BME280;46716;38.014;-7.874;2022-11-20T07:45:51;100940.06;;;9.00;100.00
60676;BME280;46716;38.014;-7.874;2022-11-20T07:47:53;100942.72;;;9.00;100.00
60676;BME280;46716;38.014;-7.874;2022-11-20T07:49:54;100941.69;;;9.06;100.00
60676;BME280;46716;38.014;-7.874;2022-11-20T07:51:55;100944.25;;;9.09;100.00
60676;BME280;46716;38.014;-7.874;2022-11-20T07:53:57;100956.50;;;9.11;100.00
60676;BME280;46716;38.014;-7.874;2022-11-20T07:56:02;100954.63;;;9.17;100.00
60676;BME280;46716;38.014;-7.874;2022-11-20T07:58:03;100958.22;;;9.13;100.00
60676;BME280;46716;38.014;-7.874;2022-11-20T08:00:05;100985.22;;;9.24;100.00
60676;BME280;46716;38.014;-7.874;2022-11-20T08:02:15;100974.47;;;9.32;100.00
60676;BME280;46716;38.014;-7.874;2022-11-20T08:04:18;100968.94;;;9.43;100.00
60676;BME280;46716;38.014;-7.874;2022-11-20T08:06:19;100959.84;;;9.56;100.00
60676;BME280;46716;38.014;-7.874;2022-11-20T08:08:20;100964.03;;;9.65;100.00
60676;BME280;46716;38.014;-7.874;2022-11-20T08:10:21;100974.25;;;9.79;100.00
60676;BME280;46716;38.014;-7.874;2022-11-20T08:12:23;100980.16;;;9.87;100.00
60676;BME280;46716;38.014;-7.874;2022-11-20T08:14:42;100986.00;;;10.00;100.00
60676;BME280;46716;38.014;-7.874;2022-11-20T08:16:45;100986.69;;;10.09;100.00
60676;BME280;46716;38.014;-7.874;2022-11-20T08:18:47;100989.91;;;10.19;100.00
60676;BME280;46716;38.014;-7.874;2022-11-20T08:20:48;100991.41;;;10.29;100.00
60676;BME280;46716;38.014;-7.874;2022-11-20T08:22:52;101004.28;;;10.42;100.00
60676;BME280;46716;38.014;-7.874;2022-11-20T08:24:53;101011.19;;;10.47;100.00
60676;BME280;46716;38.014;-7.874;2022-11-20T08:26:57;101018.00;;;10.56;100.00
60676;BME280;46716;38.014;-7.874;2022-11-20T08:28:59;101013.47;;;10.61;100.00
60676;BME280;46716;38.014;-7.874;2022-11-20T08:31:03;101023.56;;;10.77;100.00
60676;BME280;46716;38.014;-7.874;2022-11-20T08:33:08;101031.25;;;10.86;100.00
60676;BME280;46716;38.014;-7.874;2022-11-20T08:35:09;101030.03;;;10.98;100.00
60676;BME280;46716;38.014;-7.874;2022-11-20T08:37:10;101028.19;;;11.00;100.00
60676;BME280;46716;38.014;-7.874;2022-11-20T08:39:13;101025.50;;;11.02;100.00
60676;BME280;46716;38.014;-7.874;2022-11-20T08:41:14;101026.31;;;11.04;100.00
60676;BME280;46716;38.014;-7.874;2022-11-20T08:43:24;101033.78;;;11.21;100.00
60676;BME280;46716;38.014;-7.874;2022-11-20T08:45:25;101049.94;;;11.41;100.00
60676;BME280;46716;38.014;-7.874;2022-11-20T08:47:26;101053.09;;;11.52;100.00
60676;BME280;46716;38.014;-7.874;2022-11-20T08:49:30;101058.19;;;11.58;100.00
60676;BME280;46716;38.014;-7.874;2022-11-20T08:51:32;101066.00;;;11.63;100.00
60676;BME280;46716;38.014;-7.874;2022-11-20T08:53:32;101050.13;;;11.63;100.00
60676;BME280;46716;38.014;-7.874;2022-11-20T08:55:34;101058.66;;;11.71;100.00
60676;BME280;46716;38.014;-7.874;2022-11-20T08:57:37;101045.19;;;11.79;100.00
60676;BME280;46716;38.014;-7.874;2022-11-20T08:59:39;101063.94;;;12.00;100.00
60676;BME280;46716;38.014;-7.874;2022-11-20T09:01:40;101053.19;;;12.05;100.00
60676;BME280;46716;38.014;-7.874;2022-11-20T09:03:43;101059.75;;;12.21;100.00
60676;BME280;46716;38.014;-7.874;2022-11-20T09:05:47;101070.03;;;12.29;100.00
60676;BME280;46716;38.014;-7.874;2022-11-20T09:07:55;101069.34;;;12.24;100.00
60676;BME280;46716;38.014;-7.874;2022-11-20T09:09:56;101047.69;;;12.12;100.00
60676;BME280;46716;38.014;-7.874;2022-11-20T09:11:57;101051.19;;;12.13;100.00
60676;BME280;46716;38.014;-7.874;2022-11-20T09:13:58;101082.97;;;12.38;100.00
60676;BME280;46716;38.014;-7.874;2022-11-20T09:16:09;101081.75;;;12.49;100.00
60676;BME280;46716;38.014;-7.874;2022-11-20T09:18:11;101059.19;;;12.37;100.00
60676;BME280;46716;38.014;-7.874;2022-11-20T09:20:13;101056.59;;;12.35;100.00
60676;BME280;46716;38.014;-7.874;2022-11-20T09:22:15;101083.59;;;12.47;100.00
60676;BME280;46716;38.014;-7.874;2022-11-20T09:24:16;101075.75;;;12.44;100.00
60676;BME280;46716;38.014;-7.874;2022-11-20T09:26:17;101061.31;;;12.52;100.00
60676;BME280;46716;38.014;-7.874;2022-11-20T09:28:18;101071.13;;;12.74;100.00
60676;BME280;46716;38.014;-7.874;2022-11-20T09:30:19;101060.84;;;12.90;100.00
60676;BME280;46716;38.014;-7.874;2022-11-20T09:32:20;101075.38;;;13.28;100.00
60676;BME280;46716;38.014;-7.874;2022-11-20T09:34:21;101092.34;;;13.70;100.00
60676;BME280;46716;38.014;-7.874;2022-11-20T09:36:22;101082.28;;;14.01;100.00
60676;BME280;46716;38.014;-7.874;2022-11-20T09:38:22;101092.28;;;14.37;100.00
60676;BME280;46716;38.014;-7.874;2022-11-20T09:40:26;101097.84;;;14.73;100.00
60676;BME280;46716;38.014;-7.874;2022-11-20T09:47:52;101087.78;;;15.97;100.00
60676;BME280;46716;38.014;-7.874;2022-11-20T09:52:49;101081.19;;;16.75;98.87
60676;BME280;46716;38.014;-7.874;2022-11-20T09:54:56;101068.66;;;16.77;95.71
60676;BME280;46716;38.014;-7.874;2022-11-20T09:57:03;101077.16;;;16.84;95.74
60676;BME280;46716;38.014;-7.874;2022-11-20T09:59:11;101081.41;;;16.88;95.96
60676;BME280;46716;38.014;-7.874;2022-11-20T10:01:18;101087.28;;;16.94;95.13
60676;BME280;46716;38.014;-7.874;2022-11-20T10:03:32;101081.34;;;17.05;94.63
60676;BME280;46716;38.014;-7.874;2022-11-20T10:05:47;101081.28;;;17.07;94.00
60676;BME280;46716;38.014;-7.874;2022-11-20T10:10:28;101086.06;;;17.50;94.15
60676;BME280;46716;38.014;-7.874;2022-11-20T10:21:55;101090.25;;;18.93;81.78
60676;BME280;46716;38.014;-7.874;2022-11-20T10:24:23;101095.63;;;19.23;80.58
60676;BME280;46716;38.014;-7.874;2022-11-20T10:29:13;101097.59;;;20.57;72.92
60676;BME280;46716;38.014;-7.874;2022-11-20T10:31:31;101091.06;;;21.13;71.94
60676;BME280;46716;38.014;-7.874;2022-11-20T10:33:43;101071.34;;;21.39;70.11
60676;BME280;46716;38.014;-7.874;2022-11-20T10:36:17;101096.06;;;21.81;67.82
60676;BME280;46716;38.014;-7.874;2022-11-20T10:38:37;101089.91;;;22.04;67.08
60676;BME280;46716;38.014;-7.874;2022-11-20T10:40:48;101080.34;;;22.35;64.42
60676;BME280;46716;38.014;-7.874;2022-11-20T10:42:55;101087.81;;;22.43;64.76
60676;BME280;46716;38.014;-7.874;2022-11-20T10:45:31;101087.50;;;22.23;63.06
60676;BME280;46716;38.014;-7.874;2022-11-20T10:47:33;101094.75;;;22.23;63.62
60676;BME280;46716;38.014;-7.874;2022-11-20T10:49:34;101083.53;;;22.29;64.26
60676;BME280;46716;38.014;-7.874;2022-11-20T10:51:50;101083.75;;;22.26;64.18
60676;BME280;46716;38.014;-7.874;2022-11-20T10:56:38;101086.63;;;21.76;66.12
60676;BME280;46716;38.014;-7.874;2022-11-20T10:59:00;101085.28;;;21.81;65.58
60676;BME280;46716;38.014;-7.874;2022-11-20T11:01:14;101080.03;;;21.80;64.16
60676;BME280;46716;38.014;-7.874;2022-11-20T11:05:36;101085.06;;;21.71;65.96
60676;BME280;46716;38.014;-7.874;2022-11-20T11:07:39;101063.69;;;21.70;65.12
60676;BME280;46716;38.014;-7.874;2022-11-20T11:09:46;101076.78;;;21.74;66.13
60676;BME280;46716;38.014;-7.874;2022-11-20T11:11:48;101074.50;;;21.57;66.08
60676;BME280;46716;38.014;-7.874;2022-11-20T11:13:49;101076.03;;;21.48;66.66
60676;BME280;46716;38.014;-7.874;2022-11-20T11:15:51;101057.88;;;21.52;67.10
60676;BME280;46716;38.014;-7.874;2022-11-20T11:17:52;101073.72;;;21.92;66.17
60676;BME280;46716;38.014;-7.874;2022-11-20T11:20:07;101054.75;;;22.30;64.48
60676;BME280;46716;38.014;-7.874;2022-11-20T11:22:17;101044.44;;;22.59;62.54
60676;BME280;46716;38.014;-7.874;2022-11-20T11:24:22;101057.31;;;22.67;62.26
60676;BME280;46716;38.014;-7.874;2022-11-20T11:26:29;101043.81;;;22.56;61.81
60676;BME280;46716;38.014;-7.874;2022-11-20T11:28:33;101065.34;;;22.44;61.83